Terminal Aerodrome Forecast
Issued by NWS

Home | Current Version | Previous Version | Text Only | Print | Product List | Glossary On
Versions: 1 2 3 4 5 6 7 8 9 10 11 12 13 14 15 16 17 18
000
FTUS44 KLZK 291100
TAFADF
TAF
KADF 291134Z 2912/3012 15005KT P6SM VCSH FEW030 BKN080 OVC250
     FM291800 19008KT P6SM VCTS SCT030CB BKN100 OVC250 PROB30
      2921/3003 5SM -TSRA BR BKN035CB OVC080=

USA.gov is the U.S. government's official web portal to all federal, state and local government web resources and services.